createdAt,value
2022-12-11T00:02:02.788Z,97402.72
2022-12-11T00:05:07.577Z,97408.19
2022-12-11T00:08:13.927Z,97408.69
2022-12-11T00:11:18.378Z,97409.31
2022-12-11T00:14:21.647Z,97406.09
2022-12-11T00:17:25.367Z,97402.53
2022-12-11T00:20:28.716Z,97410.75
2022-12-11T00:23:36.032Z,97410.75
2022-12-11T00:26:40.329Z,97410.25
2022-12-11T00:29:44.260Z,97416.84
2022-12-11T00:32:47.643Z,97418.78
2022-12-11T00:35:51.708Z,97392.53
2022-12-11T00:38:56.809Z,97389.47
2022-12-11T00:42:00.602Z,97382.38
2022-12-11T00:45:05.288Z,97367.59
2022-12-11T00:48:09.303Z,97362.75
2022-12-11T00:51:12.686Z,97369.03
2022-12-11T00:54:18.709Z,97369.03
2022-12-11T00:57:22.045Z,97353.25
2022-12-11T01:00:26.169Z,97354.06
2022-12-11T01:03:29.607Z,97352.44
2022-12-11T01:06:33.460Z,97363.69
2022-12-11T01:09:55.578Z,97354.38
2022-12-11T01:13:02.384Z,97351.94
2022-12-11T01:16:11.807Z,97350.81
2022-12-11T01:19:16.023Z,97359.34
2022-12-11T01:22:19.390Z,97353.06
2022-12-11T01:25:26.036Z,97354.69
2022-12-11T01:28:29.191Z,97353.38
2022-12-11T01:31:33.778Z,97362.41
2022-12-11T01:34:37.273Z,97370.09
2022-12-11T01:37:41.449Z,97361.91
2022-12-11T01:40:49.404Z,97365.13
2022-12-11T01:44:03.290Z,97355.31
2022-12-11T01:47:07.216Z,97353.19
2022-12-11T01:50:11.253Z,97339.81
2022-12-11T01:53:22.434Z,97339.50
2022-12-11T01:56:31.971Z,97342.56
2022-12-11T01:59:40.040Z,97348.84
2022-12-11T02:02:44.056Z,97348.84
2022-12-11T02:05:47.362Z,97353.19
2022-12-11T02:08:51.348Z,97348.53
2022-12-11T02:12:05.539Z,97348.22
2022-12-11T02:15:18.853Z,97344.19
2022-12-11T02:18:35.894Z,97344.97
2022-12-11T02:21:49.884Z,97337.28
2022-12-11T02:25:12.115Z,97344.34
2022-12-11T02:28:26.825Z,97344.66
2022-12-11T02:31:39.892Z,97335.66
2022-12-11T02:34:50.466Z,97346.59
2022-12-11T02:38:02.926Z,97337.28
2022-12-11T02:41:11.820Z,97334.84
2022-12-11T02:44:22.137Z,97339.50
2022-12-11T02:47:30.538Z,97334.03
2022-12-11T02:50:38.971Z,97340.63
2022-12-11T02:53:45.160Z,97335.16
2022-12-11T02:56:58.974Z,97335.16
2022-12-11T03:00:05.812Z,97334.69
2022-12-11T03:03:09.444Z,97334.69
2022-12-11T03:06:22.424Z,97328.09
2022-12-11T03:09:25.802Z,97333.38
2022-12-11T03:12:33.767Z,97325.69
2022-12-11T03:15:58.486Z,97324.72
2022-12-11T03:19:16.920Z,97323.09
2022-12-11T03:22:30.358Z,97323.41
2022-12-11T03:25:45.529Z,97329.38
2022-12-11T03:28:56.967Z,97327.75
2022-12-11T03:32:10.485Z,97327.44
2022-12-11T03:35:22.261Z,97327.28
2022-12-11T03:38:38.414Z,97322.63
2022-12-11T03:41:45.705Z,97338.53
2022-12-11T03:44:54.348Z,97336.63
2022-12-11T03:48:03.627Z,97324.88
2022-12-11T03:51:09.596Z,97336.13
2022-12-11T03:54:13.473Z,97330.66
2022-12-11T03:57:27.142Z,97329.22
2022-12-11T04:00:31.276Z,97329.34
2022-12-11T04:03:36.599Z,97320.81
2022-12-11T04:06:39.956Z,97314.53
2022-12-11T04:09:43.780Z,97321.13
2022-12-11T04:12:47.187Z,97310.19
2022-12-11T04:15:50.047Z,97305.03
2022-12-11T04:19:12.038Z,97303.09
2022-12-11T04:22:35.619Z,97303.72
2022-12-11T04:25:39.102Z,97299.69
2022-12-11T04:28:46.484Z,97302.13
2022-12-11T04:31:50.647Z,97295.53
2022-12-11T04:34:56.009Z,97302.31
2022-12-11T04:37:59.636Z,97296.03
2022-12-11T04:41:06.967Z,97297.63
2022-12-11T04:44:10.327Z,97298.75
2022-12-11T04:47:14.208Z,97295.22
2022-12-11T04:50:19.922Z,97309.69
2022-12-11T04:53:23.730Z,97296.66
2022-12-11T04:56:27.127Z,97304.03
2022-12-11T04:59:32.491Z,97293.91
2022-12-11T05:02:37.139Z,97293.91
2022-12-11T05:05:42.411Z,97282.97
2022-12-11T05:08:47.543Z,97283.28
2022-12-11T05:11:51.875Z,97275.88
2022-12-11T05:14:56.047Z,97277.50
2022-12-11T05:17:59.717Z,97273.16
2022-12-11T05:21:08.540Z,97272.03
2022-12-11T05:24:12.286Z,97274.28
2022-12-11T05:27:15.760Z,97272.03
2022-12-11T05:30:19.606Z,97271.22
2022-12-11T05:33:23.247Z,97273.16
2022-12-11T05:36:31.522Z,97273.94
2022-12-11T05:39:35.174Z,97264.47
2022-12-11T05:42:38.975Z,97269.59
2022-12-11T05:45:42.458Z,97265.28
2022-12-11T05:48:49.241Z,97265.44
2022-12-11T05:51:54.007Z,97259.97
2022-12-11T05:54:57.745Z,97267.06
2022-12-11T05:58:01.185Z,97258.03
2022-12-11T06:01:10.353Z,97258.22
2022-12-11T06:04:14.361Z,97258.03
2022-12-11T06:07:19.603Z,97264.81
2022-12-11T06:10:22.823Z,97262.69
2022-12-11T06:13:27.130Z,97268.97
2022-12-11T06:16:30.469Z,97267.06
2022-12-11T06:19:37.017Z,97268.16
2022-12-11T06:22:42.009Z,97270.91
2022-12-11T06:25:45.849Z,97272.34
2022-12-11T06:28:50.308Z,97275.41
2022-12-11T06:31:53.994Z,97273.00
2022-12-11T06:34:57.370Z,97271.38
2022-12-11T06:38:02.382Z,97270.25
2022-12-11T06:41:07.950Z,97269.84
2022-12-11T06:44:11.553Z,97269.00
2022-12-11T06:47:14.831Z,97273.59
2022-12-11T06:50:18.484Z,97276.47
2022-12-11T06:53:23.240Z,97279.50
2022-12-11T06:56:27.102Z,97282.56
2022-12-11T06:59:30.328Z,97289.13
2022-12-11T07:02:34.346Z,97275.47
2022-12-11T07:05:37.624Z,97282.84
2022-12-11T07:08:43.621Z,97287.22
2022-12-11T07:11:46.928Z,97282.56
2022-12-11T07:14:50.367Z,97288.81
2022-12-11T07:17:53.746Z,97276.78
2022-12-11T07:21:00.485Z,97276.47
2022-12-11T07:24:05.936Z,97272.63
2022-12-11T07:27:09.764Z,97275.34
2022-12-11T07:30:15.495Z,97280.47
2022-12-11T07:33:19.328Z,97278.09
2022-12-11T07:36:24.348Z,97276.94
2022-12-11T07:39:29.558Z,97275.19
2022-12-11T07:42:33.113Z,97261.53
2022-12-11T07:45:36.731Z,97273.47
2022-12-11T07:48:42.682Z,97272.84
2022-12-11T07:51:46.357Z,97276.38
2022-12-11T07:54:51.477Z,97281.19
2022-12-11T07:57:54.957Z,97291.31
2022-12-11T08:00:59.203Z,97285.25
2022-12-11T08:04:03.434Z,97292.31
2022-12-11T08:07:06.815Z,97301.22
2022-12-11T08:10:12.065Z,97299.13
2022-12-11T08:13:15.606Z,97291.47
2022-12-11T08:16:20.347Z,97289.22
2022-12-11T08:19:23.613Z,97299.84
2022-12-11T08:22:27.136Z,97301.16
2022-12-11T08:25:31.823Z,97302.44
2022-12-11T08:28:35.711Z,97300.03
2022-12-11T08:31:40.870Z,97296.19
2022-12-11T08:34:44.709Z,97291.81
2022-12-11T08:37:48.429Z,97296.50
2022-12-11T08:40:53.416Z,97302.78
2022-12-11T08:43:58.505Z,97301.16
2022-12-11T08:47:02.203Z,97296.81
2022-12-11T08:50:06.888Z,97304.69
2022-12-11T08:53:10.751Z,97293.75
2022-12-11T08:56:18.735Z,97293.44
2022-12-11T08:59:22.761Z,97297.91
2022-12-11T09:02:26.391Z,97305.00
2022-12-11T09:05:30.663Z,97295.03
2022-12-11T09:08:34.778Z,97297.13
2022-12-11T09:11:40.019Z,97294.59
2022-12-11T09:14:43.287Z,97292.34
2022-12-11T09:17:46.918Z,97290.91
2022-12-11T09:20:50.595Z,97287.38
2022-12-11T09:23:56.298Z,97285.28
2022-12-11T09:27:01.385Z,97280.63
2022-12-11T09:30:06.296Z,97274.16
2022-12-11T09:33:09.841Z,97275.78
2022-12-11T09:36:14.448Z,97269.84
2022-12-11T09:39:20.029Z,97271.41
2022-12-11T09:42:44.911Z,97269.38
2022-12-11T09:45:51.682Z,97267.44
2022-12-11T09:48:56.181Z,97258.44
2022-12-11T09:52:15.035Z,97254.94
2022-12-11T09:55:24.166Z,97250.28
2022-12-11T09:58:42.323Z,97254.97
2022-12-11T10:01:54.827Z,97244.66
2022-12-11T10:05:18.189Z,97243.53
2022-12-11T10:08:36.554Z,97236.81
2022-12-11T10:12:01.091Z,97246.31
2022-12-11T10:15:25.391Z,97236.81
2022-12-11T10:18:32.294Z,97230.22
2022-12-11T10:21:42.645Z,97238.28
2022-12-11T10:25:13.029Z,97234.06
2022-12-11T10:28:19.581Z,97234.72
2022-12-11T10:31:39.437Z,97230.53
2022-12-11T10:34:49.034Z,97234.38
2022-12-11T10:37:53.436Z,97236.66
2022-12-11T10:41:04.721Z,97232.44
2022-12-11T10:44:18.502Z,97231.19
2022-12-11T10:47:24.144Z,97226.50
2022-12-11T10:50:28.085Z,97236.34
2022-12-11T10:53:34.785Z,97230.69
2022-12-11T10:56:39.510Z,97226.03
2022-12-11T10:59:49.244Z,97220.22
2022-12-11T11:02:53.955Z,97212.16
2022-12-11T11:06:07.969Z,97213.63
2022-12-11T11:09:32.006Z,97208.59
2022-12-11T11:12:42.121Z,97192.16
2022-12-11T11:15:46.560Z,97194.44
2022-12-11T11:18:58.644Z,97188.16
2022-12-11T11:22:08.403Z,97179.94
2022-12-11T11:25:20.931Z,97182.34
2022-12-11T11:28:30.486Z,97179.28
2022-12-11T11:31:36.732Z,97180.91
2022-12-11T11:34:41.723Z,97177.03
2022-12-11T11:37:55.786Z,97174.63
2022-12-11T11:41:15.230Z,97178.16
2022-12-11T11:44:29.966Z,97154.16
2022-12-11T11:47:44.275Z,97159.94
2022-12-11T11:50:52.063Z,97151.59
2022-12-11T11:54:01.546Z,97160.94
2022-12-11T11:57:19.232Z,97151.44
2022-12-11T12:00:28.829Z,97163.84
2022-12-11T12:03:35.545Z,97157.69
2022-12-11T12:07:06.805Z,97151.91
2022-12-11T12:10:20.459Z,97152.88
2022-12-11T12:13:49.609Z,97163.81
2022-12-11T12:17:15.261Z,97159.94
2022-12-11T12:20:30.632Z,97163.16
2022-12-11T12:23:56.057Z,97170.88
2022-12-11T12:27:29.442Z,97173.28
2022-12-11T12:30:51.008Z,97164.91
2022-12-11T12:34:06.538Z,97155.06
2022-12-11T12:37:28.455Z,97141.72
2022-12-11T12:40:46.466Z,97145.25
2022-12-11T12:44:12.901Z,97137.53
2022-12-11T12:47:21.557Z,97151.03
2022-12-11T12:50:33.043Z,97150.09
2022-12-11T12:53:39.490Z,97157.00
2022-12-11T12:56:47.095Z,97160.22
2022-12-11T12:59:56.431Z,97151.03
2022-12-11T13:03:03.921Z,97145.56
2022-12-11T13:06:11.157Z,97148.97
2022-12-11T13:09:19.535Z,97150.59
2022-12-11T13:12:40.772Z,97154.94
2022-12-11T13:15:44.624Z,97157.03
2022-12-11T13:18:49.659Z,97167.50
2022-12-11T13:21:59.805Z,97166.69
2022-12-11T13:25:22.072Z,97160.09
2022-12-11T13:28:51.672Z,97168.16
2022-12-11T13:32:00.933Z,97164.94
2022-12-11T13:35:08.643Z,97180.91
2022-12-11T13:38:20.554Z,97171.91
2022-12-11T13:41:25.863Z,97173.19
2022-12-11T13:44:34.981Z,97179.47
2022-12-11T13:47:39.370Z,97173.97
2022-12-11T13:50:46.153Z,97176.25
2022-12-11T13:53:50.602Z,97181.38
2022-12-11T13:57:17.929Z,97187.50
2022-12-11T14:00:27.843Z,97186.06
2022-12-11T14:03:33.606Z,97177.03
2022-12-11T14:06:40.049Z,97179.94
2022-12-11T14:09:47.199Z,97187.81
2022-12-11T14:12:57.971Z,97189.13
2022-12-11T14:16:04.271Z,97180.09
2022-12-11T14:19:10.987Z,97184.75
2022-12-11T14:22:21.860Z,97187.50
2022-12-11T14:25:28.133Z,97194.75
2022-12-11T14:28:39.959Z,97197.34
2022-12-11T14:31:45.783Z,97192.50
2022-12-11T14:34:52.652Z,97190.41
2022-12-11T14:38:01.418Z,97193.47
2022-12-11T14:41:17.657Z,97188.63
2022-12-11T14:44:26.790Z,97178.47
2022-12-11T14:47:39.359Z,97183.63
2022-12-11T14:50:50.086Z,97192.78
2022-12-11T14:53:56.278Z,97195.34
2022-12-11T14:57:06.157Z,97192.94
2022-12-11T15:00:21.849Z,97201.47
2022-12-11T15:03:34.341Z,97199.38
2022-12-11T15:06:47.322Z,97187.16
2022-12-11T15:09:52.918Z,97185.06
2022-12-11T15:12:56.346Z,97187.00
2022-12-11T15:16:01.454Z,97178.13
2022-12-11T15:19:07.231Z,97185.38
2022-12-11T15:22:17.267Z,97183.47
2022-12-11T15:25:24.870Z,97185.56
2022-12-11T15:28:34.243Z,97196.38
2022-12-11T15:31:37.608Z,97181.25
2022-12-11T15:34:48.725Z,97182.69
2022-12-11T15:37:55.135Z,97191.88
2022-12-11T15:40:59.573Z,97189.31
2022-12-11T15:44:05.727Z,97191.69
2022-12-11T15:47:17.026Z,97191.69
2022-12-11T15:50:24.566Z,97201.00
2022-12-11T15:53:28.216Z,97194.47
2022-12-11T15:56:32.294Z,97200.31
2022-12-11T15:59:36.215Z,97205.06
2022-12-11T16:02:39.624Z,97199.59
2022-12-11T16:05:45.282Z,97198.72
2022-12-11T16:08:48.738Z,97195.88
2022-12-11T16:11:52.538Z,97200.66
2022-12-11T16:14:55.872Z,97203.44
2022-12-11T16:18:04.785Z,97200.97
2022-12-11T16:21:09.717Z,97211.97
2022-12-11T16:24:13.400Z,97205.00
2022-12-11T16:27:22.827Z,97204.84
2022-12-11T16:30:28.042Z,97211.13
2022-12-11T16:33:31.370Z,97199.44
2022-12-11T16:36:36.466Z,97200.97
2022-12-11T16:39:42.720Z,97204.22
2022-12-11T16:42:46.824Z,97210.16
2022-12-11T16:45:56.769Z,97216.22
2022-12-11T16:49:00.477Z,97218.91
2022-12-11T16:52:05.814Z,97216.50
2022-12-11T16:55:11.884Z,97226.59
2022-12-11T16:58:20.264Z,97220.53
2022-12-11T17:01:24.374Z,97226.94
2022-12-11T17:04:28.758Z,97222.72
2022-12-11T17:07:34.566Z,97231.69
2022-12-11T17:10:42.110Z,97226.19
2022-12-11T17:13:46.209Z,97221.72
2022-12-11T17:16:51.374Z,97226.16
2022-12-11T17:19:56.007Z,97230.81
2022-12-11T17:23:02.134Z,97227.31
2022-12-11T17:26:10.623Z,97232.69
2022-12-11T17:29:15.106Z,97227.44
2022-12-11T17:32:19.970Z,97237.63
2022-12-11T17:35:23.303Z,97224.19
2022-12-11T17:38:28.652Z,97232.13
2022-12-11T17:41:32.045Z,97233.94
2022-12-11T17:44:35.914Z,97235.09
2022-12-11T17:47:39.096Z,97236.25
2022-12-11T17:50:43.947Z,97230.88
2022-12-11T17:53:49.299Z,97226.72
2022-12-11T17:56:53.341Z,97233.78
2022-12-11T17:59:57.178Z,97237.13
2022-12-11T18:03:00.798Z,97232.63
2022-12-11T18:06:10.165Z,97231.84
2022-12-11T18:09:15.428Z,97227.13
2022-12-11T18:12:18.805Z,97226.66
2022-12-11T18:15:22.489Z,97231.84
2022-12-11T18:18:25.988Z,97219.22
2022-12-11T18:21:33.949Z,97235.72
2022-12-11T18:24:39.210Z,97229.41
2022-12-11T18:27:42.750Z,97223.44
2022-12-11T18:30:46.695Z,97224.16
2022-12-11T18:33:51.185Z,97233.41
2022-12-11T18:36:54.840Z,97237.66
2022-12-11T18:40:00.288Z,97238.31
2022-12-11T18:43:04.017Z,97246.81
2022-12-11T18:46:10.412Z,97241.19
2022-12-11T18:49:15.335Z,97234.63
2022-12-11T18:52:19.224Z,97236.78
2022-12-11T18:55:24.293Z,97228.06
2022-12-11T18:58:28.007Z,97233.75
2022-12-11T19:01:33.209Z,97243.19
2022-12-11T19:04:37.625Z,97240.78
2022-12-11T19:07:40.972Z,97238.03
2022-12-11T19:10:48.137Z,97222.53
2022-12-11T19:13:53.318Z,97229.50
2022-12-11T19:16:57.084Z,97228.84
2022-12-11T19:20:18.812Z,97223.66
2022-12-11T19:23:24.529Z,97222.88
2022-12-11T19:26:29.325Z,97222.53
2022-12-11T19:29:33.675Z,97216.09
2022-12-11T19:32:37.070Z,97212.41
2022-12-11T19:35:41.452Z,97214.81
2022-12-11T19:38:46.973Z,97216.09
2022-12-11T19:41:52.076Z,97211.06
2022-12-11T19:44:55.512Z,97221.25
2022-12-11T19:47:59.353Z,97210.25
2022-12-11T19:51:06.241Z,97222.19
2022-12-11T19:54:14.999Z,97217.38
2022-12-11T19:57:19.867Z,97210.59
2022-12-11T20:00:24.576Z,97215.63
2022-12-11T20:03:28.562Z,97212.53
2022-12-11T20:06:35.329Z,97212.19
2022-12-11T20:09:38.729Z,97202.34
2022-12-11T20:12:43.668Z,97187.44
2022-12-11T20:15:46.974Z,97190.41
2022-12-11T20:18:50.830Z,97190.75
2022-12-11T20:21:55.657Z,97191.06
2022-12-11T20:24:59.349Z,97200.78
2022-12-11T20:28:04.161Z,97186.72
2022-12-11T20:31:14.877Z,97193.22
2022-12-11T20:34:21.579Z,97188.38
2022-12-11T20:37:26.848Z,97178.19
2022-12-11T20:40:30.353Z,97175.69
2022-12-11T20:43:35.534Z,97193.78
2022-12-11T20:46:38.941Z,97175.41
2022-12-11T20:49:42.733Z,97185.34
2022-12-11T20:52:45.957Z,97181.06
2022-12-11T20:55:49.502Z,97176.25
2022-12-11T20:58:54.256Z,97190.22
2022-12-11T21:01:58.355Z,97181.13
2022-12-11T21:05:02.141Z,97178.63
2022-12-11T21:08:06.114Z,97177.97
2022-12-11T21:11:09.320Z,97178.56
2022-12-11T21:14:14.771Z,97176.06
2022-12-11T21:17:18.248Z,97170.56
2022-12-11T21:20:22.249Z,97172.13
2022-12-11T21:23:29.129Z,97174.19
2022-12-11T21:26:32.752Z,97182.22
2022-12-11T21:29:37.681Z,97175.72
2022-12-11T21:32:41.359Z,97182.81
2022-12-11T21:35:44.800Z,97177.66
2022-12-11T21:38:49.266Z,97176.19
2022-12-11T21:41:52.967Z,97178.47
2022-12-11T21:48:21.715Z,97183.78
2022-12-11T21:51:32.592Z,97184.34
2022-12-11T21:54:37.552Z,97182.59
2022-12-11T21:57:41.132Z,97190.56
2022-12-11T22:00:47.197Z,97194.66
2022-12-11T22:03:54.383Z,97199.06
2022-12-11T22:06:59.173Z,97195.00
2022-12-11T22:10:02.796Z,97198.06
2022-12-11T22:13:06.811Z,97187.75
2022-12-11T22:16:11.995Z,97189.50
2022-12-11T22:19:15.844Z,97197.22
2022-12-11T22:22:20.465Z,97187.28
2022-12-11T22:25:23.798Z,97191.78
2022-12-11T22:28:29.210Z,97189.63
2022-12-11T22:31:33.940Z,97184.13
2022-12-11T22:34:37.590Z,97186.19
2022-12-11T22:37:41.002Z,97175.22
2022-12-11T22:40:44.468Z,97176.34
2022-12-11T22:43:47.716Z,97170.03
2022-12-11T22:46:52.596Z,97184.13
2022-12-11T22:49:55.988Z,97176.22
2022-12-11T22:52:59.452Z,97184.78
2022-12-11T22:56:06.085Z,97178.16
2022-12-11T22:59:09.741Z,97175.28
2022-12-11T23:02:14.430Z,97184.78
2022-12-11T23:05:18.298Z,97179.66
2022-12-11T23:08:21.939Z,97173.00
2022-12-11T23:11:28.798Z,97174.97
2022-12-11T23:14:32.287Z,97165.13
2022-12-11T23:17:37.302Z,97165.56
2022-12-11T23:20:40.609Z,97170.25
2022-12-11T23:23:44.429Z,97168.28
2022-12-11T23:26:48.182Z,97170.72
2022-12-11T23:29:52.258Z,97166.03
2022-12-11T23:32:57.221Z,97164.53
2022-12-11T23:36:01.035Z,97157.44
2022-12-11T23:39:05.599Z,97154.34
2022-12-11T23:42:09.530Z,97162.59
2022-12-11T23:45:13.245Z,97161.47
2022-12-11T23:48:19.083Z,97167.09
2022-12-11T23:51:25.672Z,97162.28
2022-12-11T23:54:29.460Z,97159.84
2022-12-11T23:57:32.800Z,97167.28
